createdAt,value
2024-03-16T00:01:59.689Z,37.00
2024-03-16T00:04:27.761Z,37.90
2024-03-16T00:06:57.174Z,38.70
2024-03-16T00:09:25.989Z,36.40
2024-03-16T00:11:54.690Z,37.00
2024-03-16T00:14:22.684Z,36.90
2024-03-16T00:16:50.545Z,38.40
2024-03-16T00:19:19.347Z,38.70
2024-03-16T00:21:47.514Z,38.70
2024-03-16T00:24:15.885Z,36.80
2024-03-16T00:26:44.352Z,38.00
2024-03-16T00:29:12.930Z,38.70
2024-03-16T00:31:41.018Z,37.40
2024-03-16T00:34:09.805Z,37.20
2024-03-16T00:36:38.280Z,38.50
2024-03-16T00:39:16.839Z,38.00
2024-03-16T00:41:45.850Z,39.60
2024-03-16T00:44:13.647Z,38.10
2024-03-16T00:46:41.556Z,38.70
2024-03-16T00:49:09.505Z,37.80
2024-03-16T00:51:37.623Z,39.00
2024-03-16T00:54:05.626Z,39.00
2024-03-16T00:56:33.481Z,38.30
2024-03-16T00:59:01.352Z,38.60
2024-03-16T01:01:30.553Z,40.10
2024-03-16T01:03:58.574Z,39.70
2024-03-16T01:06:26.604Z,38.70
2024-03-16T01:08:54.627Z,38.50
2024-03-16T01:11:25.410Z,38.20
2024-03-16T01:13:54.073Z,38.10
2024-03-16T01:16:21.986Z,38.80
2024-03-16T01:18:50.076Z,39.40
2024-03-16T01:21:18.082Z,38.80
2024-03-16T01:23:46.419Z,38.70
2024-03-16T01:26:15.000Z,38.40
2024-03-16T01:28:42.908Z,38.50
2024-03-16T01:31:14.491Z,38.40
2024-03-16T01:33:43.201Z,38.00
2024-03-16T01:36:11.226Z,38.70
2024-03-16T01:38:39.022Z,38.60
2024-03-16T01:41:06.859Z,38.60
2024-03-16T01:43:34.783Z,37.50
2024-03-16T01:46:02.684Z,38.00
2024-03-16T01:48:30.894Z,38.00
2024-03-16T01:50:59.030Z,38.60
2024-03-16T01:53:26.835Z,39.30
2024-03-16T01:55:54.656Z,38.10
2024-03-16T01:58:22.350Z,39.40
2024-03-16T02:00:50.386Z,38.30
2024-03-16T02:03:18.361Z,39.10
2024-03-16T02:05:47.532Z,38.60
2024-03-16T02:08:17.306Z,38.80
2024-03-16T02:10:45.258Z,38.20
2024-03-16T02:13:13.158Z,37.80
2024-03-16T02:15:41.126Z,38.10
2024-03-16T02:18:10.954Z,38.30
2024-03-16T02:20:39.010Z,39.00
2024-03-16T02:23:06.818Z,39.10
2024-03-16T02:25:35.309Z,38.30
2024-03-16T02:28:03.603Z,39.80
2024-03-16T02:30:32.044Z,40.10
2024-03-16T02:33:00.159Z,39.10
2024-03-16T02:35:28.193Z,40.10
2024-03-16T02:37:55.952Z,40.50
2024-03-16T02:40:24.336Z,40.70
2024-03-16T02:42:52.284Z,42.30
2024-03-16T02:45:20.163Z,41.70
2024-03-16T02:47:48.085Z,42.60
2024-03-16T02:50:16.007Z,42.40
2024-03-16T02:52:43.760Z,43.30
2024-03-16T02:55:11.787Z,42.20
2024-03-16T02:57:40.089Z,42.70
2024-03-16T03:00:12.083Z,46.00
2024-03-16T03:02:40.255Z,46.00
2024-03-16T03:05:12.677Z,48.20
2024-03-16T03:07:40.923Z,52.80
2024-03-16T03:10:09.859Z,52.80
2024-03-16T03:12:38.191Z,49.30
2024-03-16T03:15:07.900Z,46.00
2024-03-16T03:17:35.705Z,45.10
2024-03-16T03:20:06.764Z,45.60
2024-03-16T03:22:34.536Z,44.90
2024-03-16T03:25:02.553Z,44.90
2024-03-16T03:27:30.666Z,45.20
2024-03-16T03:29:59.162Z,45.50
2024-03-16T03:32:27.166Z,45.90
2024-03-16T03:34:54.997Z,44.60
2024-03-16T03:37:23.062Z,45.60
2024-03-16T03:39:54.045Z,44.60
2024-03-16T03:42:26.836Z,45.40
2024-03-16T03:45:26.133Z,44.00
2024-03-16T03:48:15.765Z,44.10
2024-03-16T03:50:44.753Z,46.50
2024-03-16T03:53:12.616Z,46.90
2024-03-16T03:55:40.503Z,45.20
2024-03-16T03:58:08.717Z,46.00
2024-03-16T04:00:36.779Z,45.00
2024-03-16T04:03:07.733Z,45.20
2024-03-16T04:05:35.744Z,45.10
2024-03-16T04:08:07.284Z,45.50
2024-03-16T04:10:38.758Z,45.00
2024-03-16T04:13:06.578Z,43.90
2024-03-16T04:15:34.500Z,45.50
2024-03-16T04:18:02.364Z,45.30
2024-03-16T04:20:30.238Z,45.80
2024-03-16T04:22:58.326Z,46.20
2024-03-16T04:25:26.081Z,45.50
2024-03-16T04:27:54.046Z,44.70
2024-03-16T04:30:22.292Z,45.20
2024-03-16T04:32:50.210Z,46.50
2024-03-16T04:35:18.629Z,43.80
2024-03-16T04:37:46.496Z,45.30
2024-03-16T04:40:14.507Z,45.20
2024-03-16T04:42:43.475Z,44.10
2024-03-16T04:45:11.479Z,44.30
2024-03-16T04:47:39.736Z,45.80
2024-03-16T04:50:08.295Z,45.50
2024-03-16T04:52:36.164Z,44.40
2024-03-16T04:55:04.726Z,45.20
2024-03-16T04:57:32.712Z,45.10
2024-03-16T05:00:01.080Z,44.90
2024-03-16T05:02:30.070Z,45.00
2024-03-16T05:04:59.628Z,44.50
2024-03-16T05:07:27.747Z,44.40
2024-03-16T05:09:55.678Z,44.90
2024-03-16T05:12:24.001Z,45.90
2024-03-16T05:14:51.960Z,45.30
2024-03-16T05:17:19.833Z,45.90
2024-03-16T05:19:49.352Z,44.50
2024-03-16T05:22:17.429Z,45.50
2024-03-16T05:24:45.416Z,45.30
2024-03-16T05:27:14.488Z,46.90
2024-03-16T05:29:42.325Z,46.20
2024-03-16T05:32:10.289Z,45.80
2024-03-16T05:34:40.617Z,45.70
2024-03-16T05:37:08.649Z,45.50
2024-03-16T05:39:36.695Z,46.10
2024-03-16T05:42:04.728Z,44.90
2024-03-16T05:44:32.695Z,44.50
2024-03-16T05:47:00.569Z,44.90
2024-03-16T05:49:28.440Z,45.20
2024-03-16T05:51:56.559Z,46.00
2024-03-16T05:54:24.695Z,46.10
2024-03-16T05:56:52.533Z,45.40
2024-03-16T05:59:20.301Z,45.40
2024-03-16T06:01:48.370Z,45.40
2024-03-16T06:04:18.320Z,45.60
2024-03-16T06:06:47.717Z,46.10
2024-03-16T06:09:15.760Z,45.30
2024-03-16T06:11:43.626Z,46.80
2024-03-16T06:14:11.641Z,45.90
2024-03-16T06:16:41.256Z,48.40
2024-03-16T06:19:09.324Z,47.90
2024-03-16T06:21:37.426Z,49.40
2024-03-16T06:24:06.067Z,47.50
2024-03-16T06:26:42.470Z,45.90
2024-03-16T06:29:10.733Z,44.30
2024-03-16T06:31:40.065Z,44.80
2024-03-16T06:34:08.420Z,44.10
2024-03-16T06:36:37.878Z,44.00
2024-03-16T06:39:12.671Z,46.10
2024-03-16T06:41:40.781Z,47.10
2024-03-16T06:44:08.614Z,45.50
2024-03-16T06:46:36.496Z,45.50
2024-03-16T06:49:07.734Z,48.60
2024-03-16T06:51:36.549Z,47.40
2024-03-16T06:54:07.973Z,48.60
2024-03-16T06:56:35.936Z,47.60
2024-03-16T06:59:03.792Z,48.20
2024-03-16T07:01:31.886Z,46.20
2024-03-16T07:03:59.986Z,48.00
2024-03-16T07:06:28.006Z,46.70
2024-03-16T07:08:57.589Z,46.20
2024-03-16T07:11:25.417Z,45.40
2024-03-16T07:13:55.317Z,44.90
2024-03-16T07:16:23.552Z,43.80
2024-03-16T07:18:51.688Z,44.20
2024-03-16T07:21:25.685Z,43.50
2024-03-16T07:23:55.361Z,44.80
2024-03-16T07:26:23.226Z,44.20
2024-03-16T07:28:51.287Z,43.80
2024-03-16T07:31:19.074Z,43.50
2024-03-16T07:33:46.956Z,43.50
2024-03-16T07:36:14.793Z,44.60
2024-03-16T07:38:42.672Z,44.20
2024-03-16T07:41:10.530Z,44.60
2024-03-16T07:43:38.387Z,43.60
2024-03-16T07:46:06.253Z,44.00
2024-03-16T07:48:34.132Z,46.60
2024-03-16T07:51:05.264Z,50.20
2024-03-16T07:53:33.358Z,50.00
2024-03-16T07:56:01.212Z,50.80
2024-03-16T07:58:29.612Z,50.60
2024-03-16T08:00:57.770Z,49.60
2024-03-16T08:03:26.036Z,47.80
2024-03-16T08:05:54.103Z,43.70
2024-03-16T08:08:23.777Z,55.80
2024-03-16T08:10:55.190Z,49.40
2024-03-16T08:13:23.088Z,48.50
2024-03-16T08:15:51.328Z,62.60
2024-03-16T08:18:19.550Z,67.40
2024-03-16T08:20:47.645Z,50.30
2024-03-16T08:23:16.225Z,51.50
2024-03-16T08:25:44.250Z,48.00
2024-03-16T08:28:12.494Z,47.90
2024-03-16T08:30:40.787Z,51.30
2024-03-16T08:33:08.664Z,44.30
2024-03-16T08:35:36.577Z,45.60
2024-03-16T08:38:05.970Z,44.70
2024-03-16T08:40:34.250Z,43.80
2024-03-16T08:43:02.482Z,43.50
2024-03-16T08:45:32.003Z,42.50
2024-03-16T08:48:00.071Z,41.30
2024-03-16T08:50:28.955Z,42.30
2024-03-16T08:52:57.569Z,43.80
2024-03-16T08:55:26.803Z,48.60
2024-03-16T08:57:54.991Z,49.30
2024-03-16T09:00:22.910Z,49.80
2024-03-16T09:02:52.368Z,48.60
2024-03-16T09:05:22.293Z,45.70
2024-03-16T09:07:50.197Z,44.80
2024-03-16T09:10:18.923Z,44.20
2024-03-16T09:12:48.372Z,48.60
2024-03-16T09:15:16.876Z,48.40
2024-03-16T09:17:45.080Z,47.60
2024-03-16T09:20:13.008Z,45.60
2024-03-16T09:22:40.768Z,45.40
2024-03-16T09:25:10.107Z,46.40
2024-03-16T09:27:38.745Z,45.10
2024-03-16T09:30:08.670Z,45.90
2024-03-16T09:32:38.275Z,46.10
2024-03-16T09:35:13.328Z,44.70
2024-03-16T09:37:41.479Z,44.80
2024-03-16T09:40:14.972Z,45.30
2024-03-16T09:42:43.190Z,45.20
2024-03-16T09:45:18.803Z,44.50
2024-03-16T09:47:48.339Z,44.20
2024-03-16T09:50:17.402Z,43.10
2024-03-16T09:52:50.288Z,41.40
2024-03-16T09:55:18.321Z,40.80
2024-03-16T09:57:46.339Z,41.50
2024-03-16T10:00:15.808Z,41.50
2024-03-16T10:02:43.797Z,41.60
2024-03-16T10:05:12.880Z,40.70
2024-03-16T10:07:41.071Z,40.80
2024-03-16T10:10:19.039Z,40.40
2024-03-16T10:12:47.465Z,40.30
2024-03-16T10:15:24.068Z,39.70
2024-03-16T10:17:52.083Z,37.00
2024-03-16T10:20:20.095Z,37.50
2024-03-16T10:22:49.257Z,37.00
2024-03-16T10:25:18.242Z,37.90
2024-03-16T10:27:47.235Z,36.60
2024-03-16T10:30:17.497Z,36.30
2024-03-16T10:32:50.485Z,34.30
2024-03-16T10:35:26.435Z,32.80
2024-03-16T10:37:54.571Z,33.00
2024-03-16T10:40:25.968Z,34.40
2024-03-16T10:42:54.415Z,34.30
2024-03-16T10:45:22.261Z,33.70
2024-03-16T10:47:55.147Z,32.50
2024-03-16T10:50:28.751Z,34.00
2024-03-16T10:52:57.511Z,34.00
2024-03-16T10:55:28.501Z,33.10
2024-03-16T10:57:56.544Z,31.50
2024-03-16T11:00:36.481Z,29.80
2024-03-16T11:03:30.679Z,29.40
2024-03-16T11:06:13.021Z,29.40
2024-03-16T11:08:43.658Z,29.60
2024-03-16T11:11:16.228Z,30.30
2024-03-16T11:13:58.253Z,28.80
2024-03-16T11:16:33.966Z,26.70
2024-03-16T11:19:08.465Z,26.10
2024-03-16T11:21:39.340Z,25.00
2024-03-16T11:24:14.961Z,22.70
2024-03-16T11:26:44.912Z,22.30
2024-03-16T11:29:17.223Z,19.50
2024-03-16T11:31:49.916Z,17.50
2024-03-16T11:34:18.164Z,18.40
2024-03-16T11:36:50.198Z,16.80
2024-03-16T11:39:25.329Z,16.30
2024-03-16T11:41:56.215Z,14.50
2024-03-16T11:44:24.352Z,12.20
2024-03-16T11:46:54.914Z,11.80
2024-03-16T11:49:22.776Z,10.20
2024-03-16T11:51:55.952Z,10.70
2024-03-16T11:54:24.879Z,9.20
2024-03-16T11:56:53.201Z,9.50
2024-03-16T11:59:21.002Z,10.00
2024-03-16T12:01:53.689Z,10.30
2024-03-16T12:04:25.713Z,10.70
2024-03-16T12:06:58.223Z,10.40
2024-03-16T12:09:35.556Z,10.30
2024-03-16T12:12:09.069Z,10.00
2024-03-16T12:14:43.077Z,9.60
2024-03-16T12:17:12.213Z,9.70
2024-03-16T12:19:40.187Z,9.50
2024-03-16T12:22:16.399Z,9.50
2024-03-16T12:24:44.549Z,8.60
2024-03-16T12:27:13.715Z,9.00
2024-03-16T12:29:44.238Z,8.20
2024-03-16T12:32:12.119Z,7.80
2024-03-16T12:34:40.288Z,7.20
2024-03-16T12:37:09.235Z,6.80
2024-03-16T12:39:37.664Z,7.20
2024-03-16T12:42:07.467Z,6.80
2024-03-16T12:44:35.214Z,6.80
2024-03-16T12:47:03.197Z,7.10
2024-03-16T12:49:31.139Z,7.60
2024-03-16T12:51:59.186Z,7.80
2024-03-16T12:54:27.200Z,8.90
2024-03-16T12:56:55.109Z,8.30
2024-03-16T12:59:22.936Z,8.50
2024-03-16T13:01:50.683Z,7.80
2024-03-16T13:04:20.104Z,8.20
2024-03-16T13:06:48.098Z,7.80
2024-03-16T13:09:17.324Z,7.50
2024-03-16T13:11:45.227Z,7.60
2024-03-16T13:14:13.305Z,7.40
2024-03-16T13:16:41.243Z,7.40
2024-03-16T13:19:09.345Z,7.20
2024-03-16T13:21:37.882Z,7.30
2024-03-16T13:24:07.741Z,6.80
2024-03-16T13:26:35.701Z,7.10
2024-03-16T13:29:05.255Z,6.80
2024-03-16T13:31:33.482Z,7.00
2024-03-16T13:34:01.585Z,6.80
2024-03-16T13:36:30.366Z,6.60
2024-03-16T13:38:58.237Z,5.60
2024-03-16T13:41:26.627Z,5.90
2024-03-16T13:43:55.789Z,6.20
2024-03-16T13:46:23.861Z,6.40
2024-03-16T13:49:00.121Z,5.80
2024-03-16T13:51:30.599Z,6.00
2024-03-16T13:53:58.706Z,5.60
2024-03-16T13:56:27.276Z,5.80
2024-03-16T13:58:57.415Z,5.80
2024-03-16T14:01:25.999Z,6.10
2024-03-16T14:03:59.953Z,4.80
2024-03-16T14:06:29.304Z,6.50
2024-03-16T14:08:57.211Z,8.90
2024-03-16T14:11:25.259Z,5.80
2024-03-16T14:13:55.598Z,5.60
2024-03-16T14:16:23.436Z,6.20
2024-03-16T14:18:51.194Z,5.60
2024-03-16T14:21:19.010Z,5.80
2024-03-16T14:23:46.826Z,6.70
2024-03-16T14:26:14.695Z,4.90
2024-03-16T14:28:42.496Z,4.90
2024-03-16T14:31:10.634Z,5.30
2024-03-16T14:33:39.545Z,6.70
2024-03-16T14:36:08.375Z,8.30
2024-03-16T14:38:37.816Z,6.80
2024-03-16T14:41:05.780Z,6.10
2024-03-16T14:43:34.509Z,5.50
2024-03-16T14:46:02.958Z,6.00
2024-03-16T14:48:31.144Z,6.00
2024-03-16T14:50:59.080Z,5.80
2024-03-16T14:53:27.251Z,6.80
2024-03-16T14:55:55.160Z,7.00
2024-03-16T14:58:22.897Z,6.80
2024-03-16T15:00:50.709Z,5.80
2024-03-16T15:03:18.620Z,6.60
2024-03-16T15:05:48.379Z,4.10
2024-03-16T15:08:16.441Z,4.50
2024-03-16T15:10:45.514Z,2.80
2024-03-16T15:13:13.366Z,3.40
2024-03-16T15:15:41.506Z,3.30
2024-03-16T15:18:10.421Z,3.30
2024-03-16T15:20:39.008Z,2.40
2024-03-16T15:23:07.688Z,2.70
2024-03-16T15:25:52.354Z,3.20
2024-03-16T15:28:29.836Z,2.50
2024-03-16T15:30:57.623Z,2.60
2024-03-16T15:33:27.874Z,2.50
2024-03-16T15:35:56.660Z,2.80
2024-03-16T15:38:24.499Z,3.10
2024-03-16T15:40:52.369Z,3.10
2024-03-16T15:43:20.224Z,5.70
2024-03-16T15:45:48.347Z,4.50
2024-03-16T15:48:18.104Z,4.90
2024-03-16T15:50:45.979Z,4.60
2024-03-16T15:53:14.503Z,5.20
2024-03-16T15:55:43.127Z,4.60
2024-03-16T15:58:11.406Z,5.00
2024-03-16T16:00:42.181Z,4.60
2024-03-16T16:03:10.135Z,5.10
2024-03-16T16:05:38.884Z,9.70
2024-03-16T16:08:06.749Z,9.90
2024-03-16T16:10:34.528Z,7.80
2024-03-16T16:13:02.789Z,5.40
2024-03-16T16:15:30.497Z,5.30
2024-03-16T16:17:58.355Z,5.60
2024-03-16T16:20:26.194Z,5.80
2024-03-16T16:22:54.663Z,9.90
2024-03-16T16:25:26.164Z,14.90
2024-03-16T16:27:53.989Z,14.20
2024-03-16T16:30:21.849Z,7.80
2024-03-16T16:32:51.866Z,6.90
2024-03-16T16:35:19.666Z,8.20
2024-03-16T16:37:47.507Z,5.40
2024-03-16T16:40:15.352Z,3.80
2024-03-16T16:42:43.242Z,5.50
2024-03-16T16:45:11.087Z,5.00
2024-03-16T16:47:38.855Z,3.80
2024-03-16T16:50:08.008Z,3.30
2024-03-16T16:52:35.815Z,2.60
2024-03-16T16:55:05.189Z,3.30
2024-03-16T16:57:34.676Z,5.50
2024-03-16T17:00:09.350Z,4.00
2024-03-16T17:02:39.243Z,3.50
2024-03-16T17:05:07.880Z,5.50
2024-03-16T17:07:35.808Z,5.30
2024-03-16T17:10:10.068Z,4.70
2024-03-16T17:12:37.784Z,5.50
2024-03-16T17:15:09.981Z,5.50
2024-03-16T17:17:37.926Z,3.80
2024-03-16T17:20:06.606Z,4.20
2024-03-16T17:22:34.819Z,4.40
2024-03-16T17:25:02.755Z,4.30
2024-03-16T17:27:30.716Z,4.80
2024-03-16T17:29:58.579Z,3.70
2024-03-16T17:32:26.460Z,3.90
2024-03-16T17:34:55.246Z,4.20
2024-03-16T17:37:23.104Z,3.90
2024-03-16T17:39:50.908Z,4.10
2024-03-16T17:42:18.843Z,3.40
2024-03-16T17:44:46.709Z,3.50
2024-03-16T17:47:14.584Z,3.90
2024-03-16T17:49:42.442Z,4.00
2024-03-16T17:52:10.137Z,2.80
2024-03-16T17:54:37.965Z,3.10
2024-03-16T17:57:06.548Z,3.30
2024-03-16T17:59:34.924Z,3.10
2024-03-16T18:02:05.141Z,5.10
2024-03-16T18:04:32.905Z,4.50
2024-03-16T18:07:01.186Z,5.50
2024-03-16T18:09:28.928Z,5.50
2024-03-16T18:11:58.224Z,5.70
2024-03-16T18:14:26.016Z,5.80
2024-03-16T18:16:53.916Z,6.10
2024-03-16T18:19:21.844Z,5.40
2024-03-16T18:21:52.710Z,7.30
2024-03-16T18:24:20.438Z,7.10
2024-03-16T18:26:49.182Z,10.30
2024-03-16T18:29:17.092Z,8.50
2024-03-16T18:31:45.570Z,6.50
2024-03-16T18:34:13.438Z,8.50
2024-03-16T18:36:42.075Z,7.70
2024-03-16T18:39:15.419Z,7.80
2024-03-16T18:41:43.380Z,7.80
2024-03-16T18:44:11.867Z,8.30
2024-03-16T18:46:39.834Z,7.30
2024-03-16T18:49:08.170Z,9.00
2024-03-16T18:51:36.461Z,9.70
2024-03-16T18:54:05.312Z,11.00
2024-03-16T18:56:33.359Z,9.50
2024-03-16T18:59:02.496Z,10.10
2024-03-16T19:01:30.509Z,11.50
2024-03-16T19:03:59.198Z,9.50
2024-03-16T19:06:27.476Z,10.70
2024-03-16T19:08:56.904Z,11.50
2024-03-16T19:11:25.367Z,11.40
2024-03-16T19:13:54.286Z,15.70
2024-03-16T19:16:22.207Z,13.80
2024-03-16T19:18:50.071Z,12.80
2024-03-16T19:21:18.353Z,12.30
2024-03-16T19:23:46.122Z,11.90
2024-03-16T19:26:13.976Z,11.10
2024-03-16T19:28:41.846Z,12.30
2024-03-16T19:31:09.716Z,11.90
2024-03-16T19:33:37.931Z,13.20
2024-03-16T19:36:06.409Z,11.40
2024-03-16T19:38:34.231Z,10.50
2024-03-16T19:41:02.915Z,11.20
2024-03-16T19:43:30.989Z,11.00
2024-03-16T19:45:58.846Z,9.60
2024-03-16T19:48:26.730Z,9.90
2024-03-16T19:50:54.584Z,10.60
2024-03-16T19:53:22.651Z,10.70
2024-03-16T19:55:50.520Z,12.10
2024-03-16T19:58:18.391Z,12.30
2024-03-16T20:00:46.429Z,11.70
2024-03-16T20:03:14.325Z,13.70
2024-03-16T20:05:42.702Z,12.00
2024-03-16T20:08:10.567Z,13.50
2024-03-16T20:10:38.340Z,11.70
2024-03-16T20:13:06.090Z,11.30
2024-03-16T20:15:34.850Z,12.40
2024-03-16T20:18:02.768Z,13.10
2024-03-16T20:20:30.714Z,14.60
2024-03-16T20:22:58.578Z,12.10
2024-03-16T20:25:26.458Z,12.70
2024-03-16T20:28:00.052Z,13.80
2024-03-16T20:30:27.888Z,14.70
2024-03-16T20:32:56.955Z,13.00
2024-03-16T20:35:25.797Z,12.50
2024-03-16T20:37:53.661Z,10.80
2024-03-16T20:40:22.108Z,11.80
2024-03-16T20:42:50.937Z,14.10
2024-03-16T20:45:18.806Z,11.30
2024-03-16T20:47:46.663Z,13.20
2024-03-16T20:50:14.432Z,13.50
2024-03-16T20:52:42.426Z,13.00
2024-03-16T20:55:10.420Z,11.90
2024-03-16T20:57:38.360Z,12.90
2024-03-16T21:00:10.393Z,10.70
2024-03-16T21:02:38.872Z,12.70
2024-03-16T21:05:07.082Z,15.10
2024-03-16T21:07:35.011Z,12.10
2024-03-16T21:10:05.367Z,13.40
2024-03-16T21:12:34.515Z,12.70
2024-03-16T21:15:05.108Z,12.80
2024-03-16T21:17:35.081Z,12.60
2024-03-16T21:20:05.706Z,13.40
2024-03-16T21:22:37.494Z,15.00
2024-03-16T21:25:07.374Z,13.60
2024-03-16T21:27:35.149Z,13.90
2024-03-16T21:30:03.364Z,13.90
2024-03-16T21:32:31.311Z,13.50
2024-03-16T21:37:27.530Z,12.60
2024-03-16T21:39:55.397Z,11.80
2024-03-16T21:42:23.265Z,10.70
2024-03-16T21:44:51.125Z,10.90
2024-03-16T21:47:18.992Z,12.70
2024-03-16T21:49:46.858Z,13.50
2024-03-16T21:52:15.050Z,11.00
2024-03-16T21:54:44.011Z,14.30
2024-03-16T21:57:11.990Z,11.70
2024-03-16T21:59:39.665Z,12.10
2024-03-16T22:02:08.652Z,11.70
2024-03-16T22:04:36.662Z,12.10
2024-03-16T22:07:05.401Z,11.70
2024-03-16T22:09:33.164Z,13.20
2024-03-16T22:12:01.035Z,12.10
2024-03-16T22:14:31.622Z,13.20
2024-03-16T22:17:01.089Z,11.80
2024-03-16T22:19:29.134Z,12.00
2024-03-16T22:21:56.930Z,15.20
2024-03-16T22:24:24.765Z,12.40
2024-03-16T22:26:53.661Z,14.20
2024-03-16T22:29:21.523Z,12.50
2024-03-16T22:31:49.387Z,14.70
2024-03-16T22:34:17.260Z,11.40
2024-03-16T22:36:45.117Z,13.40
2024-03-16T22:39:13.500Z,12.00
2024-03-16T22:41:41.361Z,13.10
2024-03-16T22:44:09.330Z,14.40
2024-03-16T22:46:37.245Z,12.80
2024-03-16T22:49:05.166Z,13.50
2024-03-16T22:51:32.968Z,13.80
2024-03-16T22:54:00.794Z,12.80
2024-03-16T22:56:28.612Z,11.90
2024-03-16T22:58:57.654Z,12.50
2024-03-16T23:01:25.623Z,13.40
2024-03-16T23:03:53.484Z,11.50
2024-03-16T23:06:22.889Z,12.40
2024-03-16T23:08:52.528Z,13.80
2024-03-16T23:11:20.918Z,11.80
2024-03-16T23:13:48.743Z,13.00
2024-03-16T23:16:17.324Z,15.30
2024-03-16T23:18:45.560Z,12.20
2024-03-16T23:21:13.566Z,12.70
2024-03-16T23:23:44.295Z,12.70
2024-03-16T23:26:15.297Z,10.50
2024-03-16T23:28:43.709Z,14.40
2024-03-16T23:31:11.763Z,11.90
2024-03-16T23:33:39.725Z,15.10
2024-03-16T23:36:08.898Z,14.90
2024-03-16T23:38:36.869Z,12.80
2024-03-16T23:41:05.296Z,13.30
2024-03-16T23:43:33.180Z,13.20
2024-03-16T23:46:01.045Z,11.70
2024-03-16T23:48:28.900Z,13.20
2024-03-16T23:51:00.353Z,12.10
2024-03-16T23:53:29.124Z,13.50
2024-03-16T23:55:56.998Z,13.40
2024-03-16T23:58:24.871Z,17.20
